首页
METAR-TAF:

METAR-TAF

机场 :

波爾托羅日機場

波爾托羅, 斯洛文尼亚

纬度: 45-31N, 经度: 013-34E, 海拔: 95米

当前天气观测

该预报发布于15分钟前的07:00 UTC
风速5节,风向东转东南
温度 18°C
湿度 88%
气压 1019 hPa
能见度10公里或以上
少量云层高于2300英尺
多云层高于20000英尺

METAR: LJPZ 200700Z 12005KT 9999 FEW023 BKN200 18/16 Q1019

时间: 09:15 (07:15 UTC)

预报

该预报发布于2小时和15分钟前的05:00 UTC
预报有效从20日的 06点(UTC)到 20日的 15点(UTC)
风速5节,风向南转南东
能见度10公里或以上
少量云层高于5000英尺
短暂存在
从 20日的 06点(UTC)到 20日的 15点(UTC)
风速10节,风向
多云层高于5000英尺

TAF: LJPZ 200500Z 2006/2015 15005KT 9999 FEW050 TEMPO 2006/2015 19010KT BKN050

超过4000个机场的气象观测和天气预报(METAR&TAF报告)。

可查询的气象台以黄色和红色小点在地图上表示。

将鼠标移到小点上方,可查看气象台名称。

然后点击查看天气观测和预报。

如需切换地图:点击带黑十字的绿色按钮放大地图;点击带横线的绿色按钮缩小地图;或者点击绿色箭头查看邻近地区的地图。


METAR-TAF: